createdAt,value
2023-03-17T00:01:28.863Z,99027.00
2023-03-17T00:04:38.283Z,99022.94
2023-03-17T00:07:44.374Z,99023.03
2023-03-17T00:10:51.356Z,99022.41
2023-03-17T00:13:58.952Z,99027.56
2023-03-17T00:17:05.599Z,99029.25
2023-03-17T00:20:27.894Z,99038.06
2023-03-17T00:23:35.500Z,99038.63
2023-03-17T00:26:42.750Z,99007.91
2023-03-17T00:29:49.431Z,99033.53
2023-03-17T00:33:01.497Z,99029.09
2023-03-17T00:36:21.533Z,99035.88
2023-03-17T00:39:28.103Z,99039.22
2023-03-17T00:42:35.379Z,99042.47
2023-03-17T00:45:43.039Z,99034.81
2023-03-17T00:48:50.404Z,99020.75
2023-03-17T00:51:59.986Z,99035.66
2023-03-17T00:55:08.105Z,99039.19
2023-03-17T00:58:20.708Z,99020.44
2023-03-17T01:01:30.200Z,99021.09
2023-03-17T01:04:36.784Z,99018.31
2023-03-17T01:07:53.039Z,99013.34
2023-03-17T01:10:59.707Z,99008.91
2023-03-17T01:14:06.846Z,99009.09
2023-03-17T01:17:20.869Z,99012.44
2023-03-17T01:20:31.967Z,99006.25
2023-03-17T01:23:41.260Z,99014.03
2023-03-17T01:26:48.086Z,99005.06
2023-03-17T01:29:59.003Z,99000.06
2023-03-17T01:33:05.878Z,99005.38
2023-03-17T01:36:14.261Z,99004.72
2023-03-17T01:39:23.531Z,99009.19
2023-03-17T01:42:32.776Z,98994.50
2023-03-17T01:46:20.942Z,99002.28
2023-03-17T01:49:36.890Z,99009.47
2023-03-17T01:52:44.740Z,99010.59
2023-03-17T01:55:56.937Z,99005.31
2023-03-17T01:59:10.085Z,99003.38
2023-03-17T02:02:23.271Z,99006.16
2023-03-17T02:05:33.944Z,99006.00
2023-03-17T02:08:39.685Z,98999.06
2023-03-17T02:11:50.780Z,98989.91
2023-03-17T02:14:56.873Z,98994.59
2023-03-17T02:18:03.845Z,98983.22
2023-03-17T02:21:51.564Z,98973.41
2023-03-17T02:25:02.188Z,98962.28
2023-03-17T02:28:16.332Z,98963.53
2023-03-17T02:31:24.943Z,98957.75
2023-03-17T02:34:31.657Z,98959.59
2023-03-17T02:37:42.027Z,98962.19
2023-03-17T02:40:47.756Z,98951.19
2023-03-17T02:43:55.586Z,98941.16
2023-03-17T02:47:01.498Z,98941.53
2023-03-17T02:50:10.237Z,98941.00
2023-03-17T02:53:19.525Z,98935.91
2023-03-17T02:56:25.332Z,98934.47
2023-03-17T02:59:32.232Z,98913.19
2023-03-17T03:02:38.186Z,98919.38
2023-03-17T03:05:44.960Z,98938.69
2023-03-17T03:08:53.459Z,98956.88
2023-03-17T03:12:00.182Z,98958.34
2023-03-17T03:15:07.117Z,98961.94
2023-03-17T03:18:13.752Z,98957.03
2023-03-17T03:21:19.978Z,98946.84
2023-03-17T03:24:29.252Z,98953.19
2023-03-17T03:27:35.078Z,98943.41
2023-03-17T03:30:44.770Z,98949.31
2023-03-17T03:33:50.788Z,98937.72
2023-03-17T03:36:57.819Z,98943.09
2023-03-17T03:40:07.543Z,98953.69
2023-03-17T03:43:23.079Z,98952.13
2023-03-17T03:46:30.171Z,98953.53
2023-03-17T03:49:36.775Z,98972.59
2023-03-17T03:52:42.837Z,98968.50
2023-03-17T03:55:52.020Z,98966.56
2023-03-17T03:58:57.688Z,98954.56
2023-03-17T04:02:04.252Z,98958.47
2023-03-17T04:05:13.168Z,98959.28
2023-03-17T04:08:19.766Z,98952.56
2023-03-17T04:11:28.165Z,98947.28
2023-03-17T04:14:34.896Z,98956.72
2023-03-17T04:17:41.320Z,98943.75
2023-03-17T04:20:47.895Z,98947.72
2023-03-17T04:23:55.185Z,98937.91
2023-03-17T04:27:06.085Z,98937.06
2023-03-17T04:30:17.162Z,98944.16
2023-03-17T04:33:23.813Z,98955.94
2023-03-17T04:36:30.340Z,98950.09
2023-03-17T04:39:37.111Z,98949.13
2023-03-17T04:42:45.678Z,98948.78
2023-03-17T04:45:52.415Z,98955.59
2023-03-17T04:48:59.509Z,98963.56
2023-03-17T04:52:06.865Z,98958.72
2023-03-17T04:55:14.804Z,98953.84
2023-03-17T04:58:30.792Z,98948.84
2023-03-17T05:01:39.140Z,98960.94
2023-03-17T05:04:48.991Z,98967.31
2023-03-17T05:07:54.718Z,98960.38
2023-03-17T05:11:02.181Z,98968.09
2023-03-17T05:14:10.596Z,98968.66
2023-03-17T05:17:17.440Z,98962.63
2023-03-17T05:20:23.353Z,98970.78
2023-03-17T05:23:30.359Z,98969.16
2023-03-17T05:26:36.550Z,98964.25
2023-03-17T05:29:47.832Z,98967.66
2023-03-17T05:32:53.798Z,98965.56
2023-03-17T05:36:00.593Z,98960.03
2023-03-17T05:39:07.898Z,98964.22
2023-03-17T05:42:15.773Z,98975.53
2023-03-17T05:45:24.391Z,98974.78
2023-03-17T05:48:31.048Z,98969.06
2023-03-17T05:51:37.208Z,98969.63
2023-03-17T05:54:44.884Z,98965.69
2023-03-17T05:57:51.030Z,98976.56
2023-03-17T06:01:00.365Z,98973.47
2023-03-17T06:04:06.147Z,98985.81
2023-03-17T06:07:13.925Z,98978.38
2023-03-17T06:10:20.680Z,98984.19
2023-03-17T06:13:28.873Z,98982.00
2023-03-17T06:16:37.247Z,98978.94
2023-03-17T06:19:44.053Z,98982.44
2023-03-17T06:23:03.458Z,98978.22
2023-03-17T06:26:12.658Z,98977.28
2023-03-17T06:29:18.611Z,98977.09
2023-03-17T06:32:28.413Z,98980.59
2023-03-17T06:35:36.169Z,98970.53
2023-03-17T06:38:43.854Z,98966.16
2023-03-17T06:41:49.960Z,98974.69
2023-03-17T06:44:56.940Z,98972.09
2023-03-17T06:48:07.097Z,98970.53
2023-03-17T06:51:13.997Z,98969.25
2023-03-17T06:54:20.748Z,98965.81
2023-03-17T06:57:27.312Z,98972.72
2023-03-17T07:00:33.413Z,98969.66
2023-03-17T07:03:42.608Z,98973.88
2023-03-17T07:06:48.418Z,98980.34
2023-03-17T07:09:55.075Z,98990.97
2023-03-17T07:13:02.489Z,98988.66
2023-03-17T07:16:10.130Z,98987.63
2023-03-17T07:19:18.668Z,98981.56
2023-03-17T07:22:25.814Z,98980.72
2023-03-17T07:25:31.768Z,98975.25
2023-03-17T07:28:40.451Z,98979.72
2023-03-17T07:31:46.400Z,98967.28
2023-03-17T07:34:55.549Z,98972.03
2023-03-17T07:38:01.227Z,98978.41
2023-03-17T07:41:10.018Z,98976.81
2023-03-17T07:44:16.289Z,98979.97
2023-03-17T07:47:23.092Z,98983.25
2023-03-17T07:50:31.468Z,98977.41
2023-03-17T07:53:38.034Z,98981.03
2023-03-17T07:56:44.005Z,98972.47
2023-03-17T07:59:50.761Z,98967.31
2023-03-17T08:03:09.334Z,98968.56
2023-03-17T08:06:19.468Z,98957.56
2023-03-17T08:09:25.792Z,98965.56
2023-03-17T08:12:32.536Z,98963.13
2023-03-17T08:15:38.514Z,98961.50
2023-03-17T08:18:45.312Z,98963.84
2023-03-17T08:21:54.071Z,98960.66
2023-03-17T08:25:00.719Z,98950.72
2023-03-17T08:28:06.678Z,98949.25
2023-03-17T08:31:17.428Z,98948.53
2023-03-17T08:34:24.223Z,98947.00
2023-03-17T08:37:35.466Z,98940.44
2023-03-17T08:40:43.116Z,98938.41
2023-03-17T08:43:51.894Z,98924.88
2023-03-17T08:46:58.063Z,98927.72
2023-03-17T08:50:08.684Z,98931.28
2023-03-17T08:53:17.116Z,98905.78
2023-03-17T08:56:24.503Z,98922.81
2023-03-17T08:59:30.418Z,98920.03
2023-03-17T09:02:37.202Z,98912.53
2023-03-17T09:05:44.199Z,98905.97
2023-03-17T09:08:55.745Z,98901.00
2023-03-17T09:12:03.407Z,98910.47
2023-03-17T09:15:13.022Z,98916.59
2023-03-17T09:18:21.960Z,98917.75
2023-03-17T09:21:29.432Z,98906.78
2023-03-17T09:24:37.779Z,98913.44
2023-03-17T09:27:44.807Z,98905.81
2023-03-17T09:30:50.744Z,98906.41
2023-03-17T09:33:57.350Z,98898.28
2023-03-17T09:37:03.120Z,98894.19
2023-03-17T09:40:22.327Z,98889.75
2023-03-17T09:43:42.710Z,98884.41
2023-03-17T09:47:05.554Z,98890.75
2023-03-17T09:50:21.234Z,98882.38
2023-03-17T09:53:36.082Z,98879.72
2023-03-17T09:56:54.021Z,98880.31
2023-03-17T10:00:08.039Z,98873.69
2023-03-17T10:03:15.200Z,98872.06
2023-03-17T10:06:39.383Z,98868.16
2023-03-17T10:10:04.232Z,98858.13
2023-03-17T10:13:35.193Z,98851.50
2023-03-17T10:16:54.886Z,98856.44
2023-03-17T10:20:11.624Z,98857.78
2023-03-17T10:23:25.023Z,98854.84
2023-03-17T10:26:40.767Z,98854.88
2023-03-17T10:29:49.828Z,98857.16
2023-03-17T10:33:03.392Z,98857.19
2023-03-17T10:36:17.426Z,98849.00
2023-03-17T10:39:28.292Z,98853.47
2023-03-17T10:42:35.798Z,98828.28
2023-03-17T10:46:01.246Z,98863.06
2023-03-17T10:52:43.631Z,98860.50
2023-03-17T10:55:55.654Z,98857.84
2023-03-17T10:59:10.946Z,98839.41
2023-03-17T11:02:30.665Z,98821.94
2023-03-17T11:05:38.320Z,98813.59
2023-03-17T11:08:53.868Z,98804.09
2023-03-17T11:12:09.757Z,98780.13
2023-03-17T11:15:21.682Z,98791.28
2023-03-17T11:18:39.147Z,98786.31
2023-03-17T11:22:05.088Z,98784.72
2023-03-17T11:25:19.748Z,98796.34
2023-03-17T11:28:36.435Z,98801.97
2023-03-17T11:32:00.891Z,98797.28
2023-03-17T11:35:37.089Z,98789.06
2023-03-17T11:39:01.358Z,98795.50
2023-03-17T11:42:24.357Z,98790.63
2023-03-17T11:45:40.550Z,98788.69
2023-03-17T11:49:01.653Z,98790.66
2023-03-17T11:52:30.276Z,98784.03
2023-03-17T11:55:50.360Z,98780.00
2023-03-17T11:59:05.068Z,98774.63
2023-03-17T12:02:30.826Z,98773.84
2023-03-17T12:05:39.973Z,98766.84
2023-03-17T12:09:05.611Z,98760.75
2023-03-17T12:12:18.176Z,98740.75
2023-03-17T12:15:37.290Z,98752.72
2023-03-17T12:18:58.105Z,98755.25
2023-03-17T12:22:19.560Z,98752.53
2023-03-17T12:25:37.027Z,98746.50
2023-03-17T12:28:55.643Z,98741.84
2023-03-17T12:32:09.967Z,98744.13
2023-03-17T12:35:32.330Z,98730.41
2023-03-17T12:38:46.710Z,98722.19
2023-03-17T12:42:19.572Z,98716.56
2023-03-17T12:45:57.615Z,98722.78
2023-03-17T12:49:58.141Z,98718.44
2023-03-17T12:53:30.957Z,98710.38
2023-03-17T12:56:46.797Z,98702.66
2023-03-17T13:00:10.317Z,98707.81
2023-03-17T13:03:29.066Z,98693.81
2023-03-17T13:06:45.515Z,98697.81
2023-03-17T13:10:13.412Z,98698.72
2023-03-17T13:13:47.265Z,98689.53
2023-03-17T13:17:28.941Z,98682.38
2023-03-17T13:20:44.937Z,98667.56
2023-03-17T13:24:21.825Z,98676.41
2023-03-17T13:27:50.420Z,98677.59
2023-03-17T13:31:13.378Z,98686.63
2023-03-17T13:34:23.844Z,98672.28
2023-03-17T13:37:43.923Z,98682.72
2023-03-17T13:41:13.284Z,98670.00
2023-03-17T13:44:49.605Z,98662.38
2023-03-17T13:47:55.824Z,98664.78
2023-03-17T13:51:23.515Z,98662.81
2023-03-17T13:54:43.868Z,98660.25
2023-03-17T13:58:18.590Z,98654.41
2023-03-17T14:01:27.605Z,98648.84
2023-03-17T14:04:53.639Z,98644.50
2023-03-17T14:08:08.726Z,98629.41
2023-03-17T14:11:29.796Z,98618.88
2023-03-17T14:14:51.220Z,98614.50
2023-03-17T14:18:08.368Z,98625.69
2023-03-17T14:21:26.512Z,98614.88
2023-03-17T14:24:37.279Z,98611.00
2023-03-17T14:27:43.931Z,98608.53
2023-03-17T14:30:57.597Z,98602.47
2023-03-17T14:34:04.783Z,98606.78
2023-03-17T14:37:16.007Z,98607.63
2023-03-17T14:40:29.674Z,98606.47
2023-03-17T14:43:39.655Z,98592.91
2023-03-17T14:46:45.790Z,98591.13
2023-03-17T14:49:59.748Z,98589.53
2023-03-17T14:53:06.606Z,98582.88
2023-03-17T14:56:16.964Z,98582.88
2023-03-17T14:59:29.805Z,98579.47
2023-03-17T15:02:42.515Z,98572.28
2023-03-17T15:05:50.073Z,98570.34
2023-03-17T15:08:57.511Z,98573.84
2023-03-17T15:12:09.963Z,98560.16
2023-03-17T15:15:28.053Z,98558.69
2023-03-17T15:18:34.388Z,98553.38
2023-03-17T15:21:45.658Z,98548.47
2023-03-17T15:25:02.971Z,98553.38
2023-03-17T15:28:20.099Z,98555.41
2023-03-17T15:31:29.603Z,98562.00
2023-03-17T15:34:36.632Z,98563.03
2023-03-17T15:37:43.068Z,98565.28
2023-03-17T15:40:50.165Z,98561.38
2023-03-17T15:43:58.456Z,98558.47
2023-03-17T15:47:05.839Z,98562.56
2023-03-17T15:50:22.045Z,98569.06
2023-03-17T15:53:29.152Z,98566.81
2023-03-17T15:56:35.641Z,98558.47
2023-03-17T15:59:44.925Z,98554.97
2023-03-17T16:02:55.669Z,98563.28
2023-03-17T16:06:02.694Z,98575.56
2023-03-17T16:09:19.756Z,98556.03
2023-03-17T16:12:27.822Z,98559.16
2023-03-17T16:15:45.012Z,98559.59
2023-03-17T16:18:55.317Z,98550.84
2023-03-17T16:22:05.273Z,98553.97
2023-03-17T16:25:25.586Z,98554.06
2023-03-17T16:28:38.029Z,98552.03
2023-03-17T16:31:51.983Z,98550.16
2023-03-17T16:35:01.006Z,98562.06
2023-03-17T16:38:13.743Z,98553.94
2023-03-17T16:41:30.702Z,98553.63
2023-03-17T16:44:40.875Z,98545.44
2023-03-17T16:47:54.088Z,98543.75
2023-03-17T16:51:02.150Z,98552.34
2023-03-17T16:54:09.389Z,98550.78
2023-03-17T16:57:17.077Z,98553.38
2023-03-17T17:00:30.403Z,98552.47
2023-03-17T17:03:40.960Z,98556.56
2023-03-17T17:06:50.670Z,98563.56
2023-03-17T17:09:59.586Z,98561.72
2023-03-17T17:13:09.605Z,98555.31
2023-03-17T17:16:30.389Z,98559.34
2023-03-17T17:19:43.719Z,98560.72
2023-03-17T17:22:51.047Z,98565.63
2023-03-17T17:26:00.351Z,98565.84
2023-03-17T17:29:16.121Z,98559.34
2023-03-17T17:32:23.816Z,98578.59
2023-03-17T17:35:36.188Z,98573.81
2023-03-17T17:38:44.775Z,98576.63
2023-03-17T17:41:54.373Z,98564.34
2023-03-17T17:45:08.023Z,98561.75
2023-03-17T17:48:18.311Z,98547.16
2023-03-17T17:51:29.179Z,98575.88
2023-03-17T17:54:36.694Z,98561.78
2023-03-17T17:57:43.226Z,98574.47
2023-03-17T18:00:52.742Z,98565.47
2023-03-17T18:04:06.490Z,98552.28
2023-03-17T18:07:15.837Z,98565.94
2023-03-17T18:10:25.926Z,98542.13
2023-03-17T18:13:32.648Z,98584.97
2023-03-17T18:16:40.616Z,98552.47
2023-03-17T18:19:47.763Z,98570.69
2023-03-17T18:22:56.908Z,98574.31
2023-03-17T18:26:06.119Z,98563.78
2023-03-17T18:29:13.015Z,98544.75
2023-03-17T18:32:19.812Z,98556.84
2023-03-17T18:35:32.780Z,98542.53
2023-03-17T18:38:43.875Z,98570.59
2023-03-17T18:41:51.513Z,98565.78
2023-03-17T18:55:39.638Z,98540.13
2023-03-17T18:58:48.605Z,98551.50
2023-03-17T19:01:54.701Z,98568.56
2023-03-17T19:05:01.701Z,98562.47
2023-03-17T19:08:08.363Z,98548.41
2023-03-17T19:11:21.428Z,98548.53
2023-03-17T19:14:27.713Z,98540.16
2023-03-17T19:17:37.132Z,98524.91
2023-03-17T19:20:42.983Z,98540.34
2023-03-17T19:23:52.392Z,98540.34
2023-03-17T19:27:00.796Z,98510.44
2023-03-17T19:30:11.726Z,98530.91
2023-03-17T19:33:18.993Z,98534.16
2023-03-17T19:36:29.233Z,98537.91
2023-03-17T19:39:39.296Z,98536.59
2023-03-17T19:42:48.590Z,98538.53
2023-03-17T19:45:54.739Z,98531.47
2023-03-17T19:49:01.856Z,98530.94
2023-03-17T19:52:08.044Z,98528.31
2023-03-17T19:55:14.739Z,98529.25
2023-03-17T19:58:23.308Z,98514.16
2023-03-17T20:01:32.154Z,98526.56
2023-03-17T20:04:38.097Z,98528.34
2023-03-17T20:07:46.548Z,98527.06
2023-03-17T20:10:58.822Z,98517.53
2023-03-17T20:14:09.215Z,98518.56
2023-03-17T20:17:15.599Z,98518.66
2023-03-17T20:20:22.407Z,98523.09
2023-03-17T20:23:28.862Z,98523.09
2023-03-17T20:26:35.553Z,98531.00
2023-03-17T20:29:46.748Z,98524.50
2023-03-17T20:32:53.390Z,98534.13
2023-03-17T20:35:59.683Z,98535.16
2023-03-17T20:39:09.443Z,98537.16
2023-03-17T20:42:20.443Z,98532.22
2023-03-17T20:45:33.505Z,98527.97
2023-03-17T20:48:48.791Z,98532.13
2023-03-17T20:51:56.236Z,98526.50
2023-03-17T20:55:02.942Z,98527.38
2023-03-17T20:58:10.293Z,98528.94
2023-03-17T21:01:21.524Z,98518.22
2023-03-17T21:04:29.470Z,98518.06
2023-03-17T21:07:35.374Z,98525.00
2023-03-17T21:10:42.180Z,98523.09
2023-03-17T21:13:48.703Z,98525.44
2023-03-17T21:16:57.966Z,98530.94
2023-03-17T21:20:05.157Z,98524.06
2023-03-17T21:23:13.579Z,98528.06
2023-03-17T21:26:20.219Z,98528.22
2023-03-17T21:29:31.044Z,98523.97
2023-03-17T21:32:39.957Z,98526.72
2023-03-17T21:35:47.379Z,98535.94
2023-03-17T21:38:53.905Z,98542.25
2023-03-17T21:42:02.199Z,98533.75
2023-03-17T21:45:12.264Z,98530.75
2023-03-17T21:48:22.038Z,98529.53
2023-03-17T21:51:30.375Z,98530.75
2023-03-17T21:54:38.285Z,98526.06
2023-03-17T21:57:45.287Z,98522.78
2023-03-17T22:00:52.396Z,98523.88
2023-03-17T22:04:02.618Z,98522.22
2023-03-17T22:07:12.204Z,98523.75
2023-03-17T22:10:18.846Z,98528.28
2023-03-17T22:13:26.344Z,98520.16
2023-03-17T22:16:33.160Z,98529.06
2023-03-17T22:19:49.121Z,98525.06
2023-03-17T22:23:02.014Z,98526.56
2023-03-17T22:26:15.882Z,98530.94
2023-03-17T22:29:23.887Z,98534.06
2023-03-17T22:32:33.649Z,98523.06
2023-03-17T22:35:42.899Z,98527.97
2023-03-17T22:38:49.883Z,98535.53
2023-03-17T22:41:55.799Z,98524.31
2023-03-17T22:45:03.039Z,98530.78
2023-03-17T22:48:11.029Z,98524.31
2023-03-17T22:51:24.625Z,98533.22
2023-03-17T22:54:30.453Z,98528.84
2023-03-17T22:57:37.207Z,98524.31
2023-03-17T23:00:43.188Z,98513.91
2023-03-17T23:03:50.359Z,98519.50
2023-03-17T23:06:59.218Z,98516.94
2023-03-17T23:10:08.155Z,98507.66
2023-03-17T23:13:14.296Z,98516.31
2023-03-17T23:16:22.243Z,98517.56
2023-03-17T23:19:28.032Z,98519.84
2023-03-17T23:22:37.387Z,98511.47
2023-03-17T23:25:43.786Z,98509.41
2023-03-17T23:28:50.478Z,98507.63
2023-03-17T23:31:56.324Z,98511.84
2023-03-17T23:35:03.029Z,98510.03
2023-03-17T23:38:11.513Z,98505.59
2023-03-17T23:41:18.636Z,98497.94
2023-03-17T23:44:24.619Z,98507.50
2023-03-17T23:47:32.188Z,98503.00
2023-03-17T23:50:38.342Z,98503.84
2023-03-17T23:53:48.224Z,98506.75
2023-03-17T23:56:54.424Z,98500.56
